Barranquilla, Colombia

2:05 AM COT en Octubre 01, 2016 (GMT -0500)
Universidad del Norte, Pto. Colombia, Atlantico | | Change Station

Alt 112 ft 11.02 °N, 74.85 °W | Updated 54 seconds ago

Lluvia
Lluvia
79.3 ° F
Sensación térmica 84 ° F
N
0.0
Viento Variable Viento desde Oeste
Gusts 2.0 mph

Hoy
Alta -- | Baja -- ° F
--% Posibilidad de precipitaciones
Ayer
Alta -- | Baja -- ° F
Precip. -- pul
Presión 29.73 pul
Visibilidad 6.2 Millas
Nubes Muy nublado 1500 ft
Nubes dispersas 7000 ft
Índice de calor 84 ° F
Punto de rocío 77 ° F
Humedad 92%
Precipitaciones 0.02 pul
Espesor de la nieve No disponible.
5:47 AM 5:49 PM
Luna nueva, 0% visible
METAR SKCG 010700Z VRB02KT 9999 BKN015 SCT070 27/26 A2973
Presión 29.73 pul
Visibilidad 6.2 Millas
Nubes Muy nublado 1500 ft
Nubes dispersas 7000 ft
Índice de calor 84 ° F
Punto de rocío 77 ° F
Humedad 92%
Precipitaciones 0.02 pul
Espesor de la nieve No disponible.
5:47 AM 5:49 PM
Luna nueva, 0% visible
METAR SKCG 010700Z VRB02KT 9999 BKN015 SCT070 27/26 A2973

10-Day Weather Forecast

No radar image for this location.
×

Almanac

Astronomía

Oct. 01, 2016 Salida Puesta
Hora real
Crepúsculo civil
Crepúsculo náutico
Crepúsculo astronómico
Luna
Horas de luz
Horas de luz
Tomorrow will be .
, % of the Moon is Illuminated

Extremos de hoy

Máximos del país Bajas del país

Community

WunderPhotos

Upload Photos

1,942,898 ¡fotos cargadas!

WunderBlog® & News

Nearby

Calidad del aire

  Calidad del aire Índice AQ Contaminante
Not available.

Grosos de nieve

Estación Profundido Altura

Actividad de terremotos

Ciudad Distance Mag. Tiempo y dato
Magnitud mínima muestra es 2,5.

Temperaturas de aguas costeras

Lugar Temperatura

Stations

Estaciones meteorológicas cercanas

Ubicación de la estación Temp. Vientos helados Punto de rocío Humedad Viento Precip. Alt Actualizado Tipo